sensor_id;sensor_type;location;lat;lon;timestamp;temperature;humidity
78992;DHT22;72820;44.838;37.674;2023-11-19T00:00:05;7.76;83.14
78992;DHT22;72820;44.838;37.674;2023-11-19T00:01:12;7.77;83.51
78992;DHT22;72820;44.838;37.674;2023-11-19T00:02:13;7.76;83.48
78992;DHT22;72820;44.838;37.674;2023-11-19T00:03:14;7.77;83.57
78992;DHT22;72820;44.838;37.674;2023-11-19T00:04:15;7.75;83.47
78992;DHT22;72820;44.838;37.674;2023-11-19T00:05:17;7.73;83.85
78992;DHT22;72820;44.838;37.674;2023-11-19T00:06:18;7.75;83.96
78992;DHT22;72820;44.838;37.674;2023-11-19T00:07:19;7.72;84.28
78992;DHT22;72820;44.838;37.674;2023-11-19T00:08:21;7.72;83.91
78992;DHT22;72820;44.838;37.674;2023-11-19T00:09:22;7.69;84.23
78992;DHT22;72820;44.838;37.674;2023-11-19T00:10:23;7.67;84.13
78992;DHT22;72820;44.838;37.674;2023-11-19T00:11:25;7.72;84.36
78992;DHT22;72820;44.838;37.674;2023-11-19T00:12:26;7.65;84.53
78992;DHT22;72820;44.838;37.674;2023-11-19T00:13:27;7.70;84.68
78992;DHT22;72820;44.838;37.674;2023-11-19T00:14:29;7.69;85.03
78992;DHT22;72820;44.838;37.674;2023-11-19T00:15:30;7.72;84.51
78992;DHT22;72820;44.838;37.674;2023-11-19T00:16:32;7.70;84.31
78992;DHT22;72820;44.838;37.674;2023-11-19T00:17:33;7.72;84.86
78992;DHT22;72820;44.838;37.674;2023-11-19T00:18:34;7.72;84.55
78992;DHT22;72820;44.838;37.674;2023-11-19T00:19:36;7.75;84.87
78992;DHT22;72820;44.838;37.674;2023-11-19T00:20:37;7.73;84.70
78992;DHT22;72820;44.838;37.674;2023-11-19T00:21:38;7.75;84.82
78992;DHT22;72820;44.838;37.674;2023-11-19T00:22:41;7.70;84.52
78992;DHT22;72820;44.838;37.674;2023-11-19T00:23:43;7.69;84.44
78992;DHT22;72820;44.838;37.674;2023-11-19T00:24:44;7.67;84.67
78992;DHT22;72820;44.838;37.674;2023-11-19T00:25:45;7.67;84.54
78992;DHT22;72820;44.838;37.674;2023-11-19T00:26:48;7.65;84.64
78992;DHT22;72820;44.838;37.674;2023-11-19T00:27:51;7.62;84.53
78992;DHT22;72820;44.838;37.674;2023-11-19T00:28:54;7.61;84.98
78992;DHT22;72820;44.838;37.674;2023-11-19T00:29:57;7.61;85.35
78992;DHT22;72820;44.838;37.674;2023-11-19T00:30:58;7.59;85.03
78992;DHT22;72820;44.838;37.674;2023-11-19T00:31:59;7.59;85.13
78992;DHT22;72820;44.838;37.674;2023-11-19T00:33:01;7.62;85.01
78992;DHT22;72820;44.838;37.674;2023-11-19T00:34:02;7.54;85.41
78992;DHT22;72820;44.838;37.674;2023-11-19T00:35:07;7.58;85.41
78992;DHT22;72820;44.838;37.674;2023-11-19T00:36:08;7.55;85.56
78992;DHT22;72820;44.838;37.674;2023-11-19T00:37:10;7.54;85.40
78992;DHT22;72820;44.838;37.674;2023-11-19T00:38:11;7.58;85.52
78992;DHT22;72820;44.838;37.674;2023-11-19T00:39:13;7.56;85.67
78992;DHT22;72820;44.838;37.674;2023-11-19T00:40:16;7.58;85.46
78992;DHT22;72820;44.838;37.674;2023-11-19T00:41:19;7.59;85.60
78992;DHT22;72820;44.838;37.674;2023-11-19T00:42:20;7.59;85.32
78992;DHT22;72820;44.838;37.674;2023-11-19T00:43:22;7.62;85.51
78992;DHT22;72820;44.838;37.674;2023-11-19T00:44:23;7.58;85.66
78992;DHT22;72820;44.838;37.674;2023-11-19T00:45:25;7.58;85.49
78992;DHT22;72820;44.838;37.674;2023-11-19T00:46:26;7.58;85.65
78992;DHT22;72820;44.838;37.674;2023-11-19T00:47:27;7.61;85.39
78992;DHT22;72820;44.838;37.674;2023-11-19T00:48:29;7.63;85.50
78992;DHT22;72820;44.838;37.674;2023-11-19T00:49:31;7.63;85.51
78992;DHT22;72820;44.838;37.674;2023-11-19T00:50:36;7.62;85.36
78992;DHT22;72820;44.838;37.674;2023-11-19T00:51:37;7.62;85.58
78992;DHT22;72820;44.838;37.674;2023-11-19T00:52:39;7.61;85.59
78992;DHT22;72820;44.838;37.674;2023-11-19T00:53:40;7.65;85.58
78992;DHT22;72820;44.838;37.674;2023-11-19T00:54:42;7.66;85.79
78992;DHT22;72820;44.838;37.674;2023-11-19T00:55:43;7.67;85.74
78992;DHT22;72820;44.838;37.674;2023-11-19T00:56:45;7.69;85.68
78992;DHT22;72820;44.838;37.674;2023-11-19T00:57:46;7.67;85.65
78992;DHT22;72820;44.838;37.674;2023-11-19T00:58:47;7.65;85.38
78992;DHT22;72820;44.838;37.674;2023-11-19T00:59:48;7.65;85.64
78992;DHT22;72820;44.838;37.674;2023-11-19T01:00:50;7.65;85.39
78992;DHT22;72820;44.838;37.674;2023-11-19T01:01:51;7.66;85.96
78992;DHT22;72820;44.838;37.674;2023-11-19T01:02:52;7.72;85.45
78992;DHT22;72820;44.838;37.674;2023-11-19T01:03:54;7.73;85.56
78992;DHT22;72820;44.838;37.674;2023-11-19T01:04:55;7.75;86.05
78992;DHT22;72820;44.838;37.674;2023-11-19T01:05:56;7.75;85.68
78992;DHT22;72820;44.838;37.674;2023-11-19T01:07:02;7.76;85.71
78992;DHT22;72820;44.838;37.674;2023-11-19T01:08:05;7.77;85.82
78992;DHT22;72820;44.838;37.674;2023-11-19T01:09:08;7.76;86.09
78992;DHT22;72820;44.838;37.674;2023-11-19T01:10:10;7.80;86.24
78992;DHT22;72820;44.838;37.674;2023-11-19T01:11:21;7.76;85.44
78992;DHT22;72820;44.838;37.674;2023-11-19T01:12:22;7.75;86.05
78992;DHT22;72820;44.838;37.674;2023-11-19T01:13:23;7.69;85.92
78992;DHT22;72820;44.838;37.674;2023-11-19T01:14:25;7.65;86.40
78992;DHT22;72820;44.838;37.674;2023-11-19T01:15:27;7.67;86.38
78992;DHT22;72820;44.838;37.674;2023-11-19T01:16:28;7.66;86.43
78992;DHT22;72820;44.838;37.674;2023-11-19T01:17:29;7.67;86.18
78992;DHT22;72820;44.838;37.674;2023-11-19T01:18:32;7.69;86.42
78992;DHT22;72820;44.838;37.674;2023-11-19T01:19:34;7.69;85.95
78992;DHT22;72820;44.838;37.674;2023-11-19T01:20:36;7.72;86.20
78992;DHT22;72820;44.838;37.674;2023-11-19T01:21:37;7.76;86.31
78992;DHT22;72820;44.838;37.674;2023-11-19T01:22:39;7.79;86.32
78992;DHT22;72820;44.838;37.674;2023-11-19T01:23:41;7.83;85.78
78992;DHT22;72820;44.838;37.674;2023-11-19T01:24:46;7.82;85.66
78992;DHT22;72820;44.838;37.674;2023-11-19T01:25:48;7.87;85.55
78992;DHT22;72820;44.838;37.674;2023-11-19T01:26:49;7.89;85.44
78992;DHT22;72820;44.838;37.674;2023-11-19T01:27:50;7.90;85.94
78992;DHT22;72820;44.838;37.674;2023-11-19T01:28:52;7.90;85.33
78992;DHT22;72820;44.838;37.674;2023-11-19T01:29:54;7.84;85.77
78992;DHT22;72820;44.838;37.674;2023-11-19T01:30:57;7.87;85.70
78992;DHT22;72820;44.838;37.674;2023-11-19T01:31:58;7.89;85.71
78992;DHT22;72820;44.838;37.674;2023-11-19T01:32:59;7.90;85.91
78992;DHT22;72820;44.838;37.674;2023-11-19T01:34:01;7.90;85.75
78992;DHT22;72820;44.838;37.674;2023-11-19T01:35:03;7.87;85.43
78992;DHT22;72820;44.838;37.674;2023-11-19T01:36:05;7.84;86.04
78992;DHT22;72820;44.838;37.674;2023-11-19T01:37:06;7.87;85.98
78992;DHT22;72820;44.838;37.674;2023-11-19T01:38:10;7.87;85.88
78992;DHT22;72820;44.838;37.674;2023-11-19T01:39:11;7.90;86.08
78992;DHT22;72820;44.838;37.674;2023-11-19T01:40:13;7.94;85.92
78992;DHT22;72820;44.838;37.674;2023-11-19T01:41:14;7.93;85.78
78992;DHT22;72820;44.838;37.674;2023-11-19T01:42:15;7.97;85.57
78992;DHT22;72820;44.838;37.674;2023-11-19T01:43:33;7.97;85.18
78992;DHT22;72820;44.838;37.674;2023-11-19T01:44:35;8.00;85.14
78992;DHT22;72820;44.838;37.674;2023-11-19T01:45:37;7.97;85.38
78992;DHT22;72820;44.838;37.674;2023-11-19T01:46:41;7.93;85.40
78992;DHT22;72820;44.838;37.674;2023-11-19T01:47:43;7.90;85.81
78992;DHT22;72820;44.838;37.674;2023-11-19T01:48:46;7.86;85.78
78992;DHT22;72820;44.838;37.674;2023-11-19T01:49:48;7.87;85.70
78992;DHT22;72820;44.838;37.674;2023-11-19T01:50:50;7.82;85.97
78992;DHT22;72820;44.838;37.674;2023-11-19T01:51:53;7.79;86.08
78992;DHT22;72820;44.838;37.674;2023-11-19T01:52:54;7.79;86.23
78992;DHT22;72820;44.838;37.674;2023-11-19T01:53:59;7.77;86.43
78992;DHT22;72820;44.838;37.674;2023-11-19T01:55:00;7.76;86.43
78992;DHT22;72820;44.838;37.674;2023-11-19T01:56:03;7.76;86.51
78992;DHT22;72820;44.838;37.674;2023-11-19T01:57:05;7.75;86.20
78992;DHT22;72820;44.838;37.674;2023-11-19T01:58:07;7.79;86.38
78992;DHT22;72820;44.838;37.674;2023-11-19T01:59:09;7.80;86.20
78992;DHT22;72820;44.838;37.674;2023-11-19T02:00:12;7.86;86.30
78992;DHT22;72820;44.838;37.674;2023-11-19T02:01:18;7.90;85.90
78992;DHT22;72820;44.838;37.674;2023-11-19T02:02:20;7.94;85.97
78992;DHT22;72820;44.838;37.674;2023-11-19T02:03:22;7.93;85.81
78992;DHT22;72820;44.838;37.674;2023-11-19T02:04:27;7.95;85.91
78992;DHT22;72820;44.838;37.674;2023-11-19T02:05:28;7.98;85.52
78992;DHT22;72820;44.838;37.674;2023-11-19T02:06:31;8.03;85.59
78992;DHT22;72820;44.838;37.674;2023-11-19T02:07:33;8.01;85.65
78992;DHT22;72820;44.838;37.674;2023-11-19T02:08:34;8.04;85.11
78992;DHT22;72820;44.838;37.674;2023-11-19T02:09:36;8.05;85.42
78992;DHT22;72820;44.838;37.674;2023-11-19T02:10:38;8.10;84.76
78992;DHT22;72820;44.838;37.674;2023-11-19T02:11:40;8.10;84.97
78992;DHT22;72820;44.838;37.674;2023-11-19T02:12:42;8.14;84.49
78992;DHT22;72820;44.838;37.674;2023-11-19T02:13:46;8.13;85.00
78992;DHT22;72820;44.838;37.674;2023-11-19T02:14:48;8.14;84.83
78992;DHT22;72820;44.838;37.674;2023-11-19T02:15:49;8.11;85.29
78992;DHT22;72820;44.838;37.674;2023-11-19T02:16:50;8.08;85.10
78992;DHT22;72820;44.838;37.674;2023-11-19T02:17:52;8.07;85.07
78992;DHT22;72820;44.838;37.674;2023-11-19T02:18:53;8.07;84.95
78992;DHT22;72820;44.838;37.674;2023-11-19T02:19:54;8.05;84.81
78992;DHT22;72820;44.838;37.674;2023-11-19T02:20:57;8.08;85.06
78992;DHT22;72820;44.838;37.674;2023-11-19T02:21:58;8.08;84.70
78992;DHT22;72820;44.838;37.674;2023-11-19T02:23:00;8.11;84.48
78992;DHT22;72820;44.838;37.674;2023-11-19T02:24:06;8.15;84.91
78992;DHT22;72820;44.838;37.674;2023-11-19T02:25:19;8.20;84.95
78992;DHT22;72820;44.838;37.674;2023-11-19T02:27:58;8.20;84.74
78992;DHT22;72820;44.838;37.674;2023-11-19T02:29:00;8.20;84.59
78992;DHT22;72820;44.838;37.674;2023-11-19T02:30:02;8.21;84.20
78992;DHT22;72820;44.838;37.674;2023-11-19T02:31:07;8.22;84.20
78992;DHT22;72820;44.838;37.674;2023-11-19T02:32:11;8.24;84.43
78992;DHT22;72820;44.838;37.674;2023-11-19T02:33:14;8.27;84.33
78992;DHT22;72820;44.838;37.674;2023-11-19T02:34:16;8.22;84.49
78992;DHT22;72820;44.838;37.674;2023-11-19T02:35:17;8.18;84.77
78992;DHT22;72820;44.838;37.674;2023-11-19T02:36:18;8.14;84.88
78992;DHT22;72820;44.838;37.674;2023-11-19T02:37:20;8.15;84.79
78992;DHT22;72820;44.838;37.674;2023-11-19T02:38:21;8.14;84.86
78992;DHT22;72820;44.838;37.674;2023-11-19T02:39:22;8.07;84.86
78992;DHT22;72820;44.838;37.674;2023-11-19T02:40:24;8.08;85.49
78992;DHT22;72820;44.838;37.674;2023-11-19T02:41:25;8.10;85.46
78992;DHT22;72820;44.838;37.674;2023-11-19T02:42:27;8.10;85.44
78992;DHT22;72820;44.838;37.674;2023-11-19T02:43:29;8.05;85.34
78992;DHT22;72820;44.838;37.674;2023-11-19T02:44:32;8.04;85.54
78992;DHT22;72820;44.838;37.674;2023-11-19T02:45:34;7.98;85.43
78992;DHT22;72820;44.838;37.674;2023-11-19T02:46:35;7.97;85.99
78992;DHT22;72820;44.838;37.674;2023-11-19T02:47:36;7.91;85.81
78992;DHT22;72820;44.838;37.674;2023-11-19T02:48:38;7.89;85.71
78992;DHT22;72820;44.838;37.674;2023-11-19T02:49:41;7.89;86.11
78992;DHT22;72820;44.838;37.674;2023-11-19T02:50:44;7.86;86.28
78992;DHT22;72820;44.838;37.674;2023-11-19T02:51:45;7.83;86.28
78992;DHT22;72820;44.838;37.674;2023-11-19T02:52:46;7.80;86.38
78992;DHT22;72820;44.838;37.674;2023-11-19T02:53:48;7.80;86.50
78992;DHT22;72820;44.838;37.674;2023-11-19T02:54:49;7.79;86.37
78992;DHT22;72820;44.838;37.674;2023-11-19T02:55:52;7.77;86.75
78992;DHT22;72820;44.838;37.674;2023-11-19T02:56:53;7.82;86.63
78992;DHT22;72820;44.838;37.674;2023-11-19T02:58:00;7.83;86.56
78992;DHT22;72820;44.838;37.674;2023-11-19T02:59:02;7.84;86.42
78992;DHT22;72820;44.838;37.674;2023-11-19T03:00:17;7.91;86.55
78992;DHT22;72820;44.838;37.674;2023-11-19T03:01:25;7.98;86.63
78992;DHT22;72820;44.838;37.674;2023-11-19T03:02:32;8.00;86.30
78992;DHT22;72820;44.838;37.674;2023-11-19T03:03:44;8.05;86.05
78992;DHT22;72820;44.838;37.674;2023-11-19T03:04:50;8.05;85.80
78992;DHT22;72820;44.838;37.674;2023-11-19T03:05:51;8.07;85.60
78992;DHT22;72820;44.838;37.674;2023-11-19T03:06:52;8.07;85.41
78992;DHT22;72820;44.838;37.674;2023-11-19T03:07:54;8.07;85.29
78992;DHT22;72820;44.838;37.674;2023-11-19T03:08:56;8.10;85.54
78992;DHT22;72820;44.838;37.674;2023-11-19T03:09:57;8.10;85.59
78992;DHT22;72820;44.838;37.674;2023-11-19T03:10:58;8.10;85.49
78992;DHT22;72820;44.838;37.674;2023-11-19T03:12:00;8.10;85.61
78992;DHT22;72820;44.838;37.674;2023-11-19T03:13:02;8.10;85.54
78992;DHT22;72820;44.838;37.674;2023-11-19T03:14:03;8.11;85.44
78992;DHT22;72820;44.838;37.674;2023-11-19T03:15:05;8.14;85.36
78992;DHT22;72820;44.838;37.674;2023-11-19T03:16:07;8.14;85.36
78992;DHT22;72820;44.838;37.674;2023-11-19T03:17:08;8.10;85.32
78992;DHT22;72820;44.838;37.674;2023-11-19T03:18:10;8.10;85.82
78992;DHT22;72820;44.838;37.674;2023-11-19T03:19:12;8.10;85.59
78992;DHT22;72820;44.838;37.674;2023-11-19T03:20:13;8.05;85.51
78992;DHT22;72820;44.838;37.674;2023-11-19T03:21:17;8.04;85.73
78992;DHT22;72820;44.838;37.674;2023-11-19T03:22:19;8.04;85.88
78992;DHT22;72820;44.838;37.674;2023-11-19T03:23:21;8.04;85.67
78992;DHT22;72820;44.838;37.674;2023-11-19T03:24:23;8.04;85.84
78992;DHT22;72820;44.838;37.674;2023-11-19T03:25:26;8.08;85.90
78992;DHT22;72820;44.838;37.674;2023-11-19T03:26:37;8.04;85.94
78992;DHT22;72820;44.838;37.674;2023-11-19T03:27:39;8.04;85.89
78992;DHT22;72820;44.838;37.674;2023-11-19T03:28:43;8.05;85.72
78992;DHT22;72820;44.838;37.674;2023-11-19T03:29:44;8.03;85.69
78992;DHT22;72820;44.838;37.674;2023-11-19T03:30:45;8.01;85.89
78992;DHT22;72820;44.838;37.674;2023-11-19T03:31:46;8.00;85.76
78992;DHT22;72820;44.838;37.674;2023-11-19T03:32:48;7.94;85.84
78992;DHT22;72820;44.838;37.674;2023-11-19T03:33:50;7.89;85.78
78992;DHT22;72820;44.838;37.674;2023-11-19T03:34:52;7.86;86.14
78992;DHT22;72820;44.838;37.674;2023-11-19T03:35:54;7.80;86.53
78992;DHT22;72820;44.838;37.674;2023-11-19T03:36:55;7.79;86.66
78992;DHT22;72820;44.838;37.674;2023-11-19T03:37:57;7.83;86.51
78992;DHT22;72820;44.838;37.674;2023-11-19T03:38:59;7.82;86.79
78992;DHT22;72820;44.838;37.674;2023-11-19T03:40:00;7.80;86.58
78992;DHT22;72820;44.838;37.674;2023-11-19T03:41:10;7.80;86.58
78992;DHT22;72820;44.838;37.674;2023-11-19T03:42:13;7.80;86.82
78992;DHT22;72820;44.838;37.674;2023-11-19T03:43:14;7.79;86.61
78992;DHT22;72820;44.838;37.674;2023-11-19T03:44:16;7.79;86.52
78992;DHT22;72820;44.838;37.674;2023-11-19T03:45:19;7.79;86.70
78992;DHT22;72820;44.838;37.674;2023-11-19T03:46:20;7.80;86.72
78992;DHT22;72820;44.838;37.674;2023-11-19T03:47:22;7.80;86.89
78992;DHT22;72820;44.838;37.674;2023-11-19T03:48:23;7.83;87.03
78992;DHT22;72820;44.838;37.674;2023-11-19T03:49:25;7.87;86.89
78992;DHT22;72820;44.838;37.674;2023-11-19T03:50:26;7.87;86.59
78992;DHT22;72820;44.838;37.674;2023-11-19T03:51:27;7.86;86.33
78992;DHT22;72820;44.838;37.674;2023-11-19T03:52:29;7.90;86.32
78992;DHT22;72820;44.838;37.674;2023-11-19T03:53:30;7.87;86.38
78992;DHT22;72820;44.838;37.674;2023-11-19T03:54:31;7.89;86.35
78992;DHT22;72820;44.838;37.674;2023-11-19T03:55:33;7.97;86.41
78992;DHT22;72820;44.838;37.674;2023-11-19T03:56:35;8.00;86.16
78992;DHT22;72820;44.838;37.674;2023-11-19T03:57:36;7.97;86.10
78992;DHT22;72820;44.838;37.674;2023-11-19T03:58:38;7.97;86.11
78992;DHT22;72820;44.838;37.674;2023-11-19T03:59:40;7.94;86.00
78992;DHT22;72820;44.838;37.674;2023-11-19T04:00:41;7.90;86.06
78992;DHT22;72820;44.838;37.674;2023-11-19T04:01:42;7.86;86.11
78992;DHT22;72820;44.838;37.674;2023-11-19T04:02:44;7.82;86.00
78992;DHT22;72820;44.838;37.674;2023-11-19T04:03:45;7.79;86.44
78992;DHT22;72820;44.838;37.674;2023-11-19T04:04:46;7.80;86.48
78992;DHT22;72820;44.838;37.674;2023-11-19T04:05:49;7.79;86.31
78992;DHT22;72820;44.838;37.674;2023-11-19T04:06:51;7.76;86.52
78992;DHT22;72820;44.838;37.674;2023-11-19T04:07:52;7.77;86.39
78992;DHT22;72820;44.838;37.674;2023-11-19T04:08:53;7.79;86.72
78992;DHT22;72820;44.838;37.674;2023-11-19T04:09:55;7.80;86.91
78992;DHT22;72820;44.838;37.674;2023-11-19T04:10:56;7.84;86.96
78992;DHT22;72820;44.838;37.674;2023-11-19T04:11:57;7.84;86.49
78992;DHT22;72820;44.838;37.674;2023-11-19T04:12:59;7.80;86.34
78992;DHT22;72820;44.838;37.674;2023-11-19T04:14:00;7.83;86.42
78992;DHT22;72820;44.838;37.674;2023-11-19T04:15:02;7.80;86.69
78992;DHT22;72820;44.838;37.674;2023-11-19T04:16:03;7.79;86.42
78992;DHT22;72820;44.838;37.674;2023-11-19T04:17:05;7.77;86.49
78992;DHT22;72820;44.838;37.674;2023-11-19T04:18:06;7.77;86.65
78992;DHT22;72820;44.838;37.674;2023-11-19T04:19:08;7.77;86.65
78992;DHT22;72820;44.838;37.674;2023-11-19T04:20:10;7.77;86.79
78992;DHT22;72820;44.838;37.674;2023-11-19T04:21:14;7.77;86.68
78992;DHT22;72820;44.838;37.674;2023-11-19T04:22:15;7.75;86.82
78992;DHT22;72820;44.838;37.674;2023-11-19T04:23:17;7.77;86.95
78992;DHT22;72820;44.838;37.674;2023-11-19T04:24:18;7.76;86.67
78992;DHT22;72820;44.838;37.674;2023-11-19T04:25:20;7.75;86.57
78992;DHT22;72820;44.838;37.674;2023-11-19T04:26:21;7.80;86.69
78992;DHT22;72820;44.838;37.674;2023-11-19T04:27:22;7.77;86.82
78992;DHT22;72820;44.838;37.674;2023-11-19T04:28:24;7.79;86.60
78992;DHT22;72820;44.838;37.674;2023-11-19T04:29:27;7.76;86.65
78992;DHT22;72820;44.838;37.674;2023-11-19T04:30:29;7.77;86.43
78992;DHT22;72820;44.838;37.674;2023-11-19T04:31:32;7.80;86.52
78992;DHT22;72820;44.838;37.674;2023-11-19T04:32:33;7.80;86.70
78992;DHT22;72820;44.838;37.674;2023-11-19T04:33:35;7.77;86.79
78992;DHT22;72820;44.838;37.674;2023-11-19T04:34:36;7.80;86.68
78992;DHT22;72820;44.838;37.674;2023-11-19T04:35:38;7.82;86.70
78992;DHT22;72820;44.838;37.674;2023-11-19T04:36:39;7.84;86.56
78992;DHT22;72820;44.838;37.674;2023-11-19T04:37:41;7.84;86.62
78992;DHT22;72820;44.838;37.674;2023-11-19T04:38:43;7.86;86.54
78992;DHT22;72820;44.838;37.674;2023-11-19T04:39:44;7.84;86.59
78992;DHT22;72820;44.838;37.674;2023-11-19T04:40:47;7.83;86.54
78992;DHT22;72820;44.838;37.674;2023-11-19T04:41:49;7.82;86.48
78992;DHT22;72820;44.838;37.674;2023-11-19T04:42:50;7.80;86.73
78992;DHT22;72820;44.838;37.674;2023-11-19T04:43:52;7.77;86.76
78992;DHT22;72820;44.838;37.674;2023-11-19T04:44:53;7.83;86.82
78992;DHT22;72820;44.838;37.674;2023-11-19T04:45:55;7.86;86.57
78992;DHT22;72820;44.838;37.674;2023-11-19T04:46:57;7.90;86.75
78992;DHT22;72820;44.838;37.674;2023-11-19T04:47:58;7.90;86.79
78992;DHT22;72820;44.838;37.674;2023-11-19T04:49:00;7.94;86.39
78992;DHT22;72820;44.838;37.674;2023-11-19T04:50:02;7.98;86.08
78992;DHT22;72820;44.838;37.674;2023-11-19T04:51:05;8.03;86.11
78992;DHT22;72820;44.838;37.674;2023-11-19T04:52:07;8.05;86.00
78992;DHT22;72820;44.838;37.674;2023-11-19T04:53:08;8.08;85.67
78992;DHT22;72820;44.838;37.674;2023-11-19T04:54:10;8.11;85.67
78992;DHT22;72820;44.838;37.674;2023-11-19T04:55:12;8.10;85.84
78992;DHT22;72820;44.838;37.674;2023-11-19T04:56:15;8.11;85.45
78992;DHT22;72820;44.838;37.674;2023-11-19T04:57:17;8.14;85.41
78992;DHT22;72820;44.838;37.674;2023-11-19T04:58:19;8.18;85.76
78992;DHT22;72820;44.838;37.674;2023-11-19T04:59:20;8.15;85.75
78992;DHT22;72820;44.838;37.674;2023-11-19T05:00:22;8.20;85.46
78992;DHT22;72820;44.838;37.674;2023-11-19T05:01:23;8.20;85.53
78992;DHT22;72820;44.838;37.674;2023-11-19T05:02:25;8.21;85.63
78992;DHT22;72820;44.838;37.674;2023-11-19T05:03:27;8.27;85.70
78992;DHT22;72820;44.838;37.674;2023-11-19T05:04:28;8.25;85.47
78992;DHT22;72820;44.838;37.674;2023-11-19T05:05:30;8.28;85.43
78992;DHT22;72820;44.838;37.674;2023-11-19T05:06:31;8.27;85.18
78992;DHT22;72820;44.838;37.674;2023-11-19T05:07:33;8.25;85.56
78992;DHT22;72820;44.838;37.674;2023-11-19T05:08:35;8.31;85.46
78992;DHT22;72820;44.838;37.674;2023-11-19T05:09:37;8.35;85.40
78992;DHT22;72820;44.838;37.674;2023-11-19T05:10:38;8.35;85.22
78992;DHT22;72820;44.838;37.674;2023-11-19T05:11:40;8.34;85.23
78992;DHT22;72820;44.838;37.674;2023-11-19T05:12:42;8.35;84.80
78992;DHT22;72820;44.838;37.674;2023-11-19T05:13:44;8.38;84.70
78992;DHT22;72820;44.838;37.674;2023-11-19T05:14:46;8.37;85.24
78992;DHT22;72820;44.838;37.674;2023-11-19T05:15:51;8.38;85.56
78992;DHT22;72820;44.838;37.674;2023-11-19T05:16:52;8.41;85.87
78992;DHT22;72820;44.838;37.674;2023-11-19T05:17:54;8.58;86.42
78992;DHT22;72820;44.838;37.674;2023-11-19T05:18:56;8.65;84.99
78992;DHT22;72820;44.838;37.674;2023-11-19T05:19:58;8.69;86.29
78992;DHT22;72820;44.838;37.674;2023-11-19T05:20:59;8.79;84.74
78992;DHT22;72820;44.838;37.674;2023-11-19T05:22:01;8.86;84.99
78992;DHT22;72820;44.838;37.674;2023-11-19T05:23:02;8.83;83.97
78992;DHT22;72820;44.838;37.674;2023-11-19T05:24:04;8.77;83.90
78992;DHT22;72820;44.838;37.674;2023-11-19T05:25:06;8.67;84.18
78992;DHT22;72820;44.838;37.674;2023-11-19T05:26:08;8.69;85.08
78992;DHT22;72820;44.838;37.674;2023-11-19T05:27:10;8.69;83.91
78992;DHT22;72820;44.838;37.674;2023-11-19T05:28:12;8.59;84.32
78992;DHT22;72820;44.838;37.674;2023-11-19T05:29:15;8.59;84.61
78992;DHT22;72820;44.838;37.674;2023-11-19T05:30:17;8.60;84.95
78992;DHT22;72820;44.838;37.674;2023-11-19T05:31:18;8.60;85.02
78992;DHT22;72820;44.838;37.674;2023-11-19T05:32:20;8.58;84.92
78992;DHT22;72820;44.838;37.674;2023-11-19T05:33:22;8.55;84.89
78992;DHT22;72820;44.838;37.674;2023-11-19T05:34:23;8.52;85.18
78992;DHT22;72820;44.838;37.674;2023-11-19T05:35:26;8.53;85.17
78992;DHT22;72820;44.838;37.674;2023-11-19T05:36:27;8.49;85.50
78992;DHT22;72820;44.838;37.674;2023-11-19T05:37:30;8.50;85.38
78992;DHT22;72820;44.838;37.674;2023-11-19T05:38:31;8.49;85.43
78992;DHT22;72820;44.838;37.674;2023-11-19T05:39:33;8.50;85.24
78992;DHT22;72820;44.838;37.674;2023-11-19T05:40:35;8.53;85.32
78992;DHT22;72820;44.838;37.674;2023-11-19T05:41:36;8.52;85.13
78992;DHT22;72820;44.838;37.674;2023-11-19T05:42:38;8.52;85.29
78992;DHT22;72820;44.838;37.674;2023-11-19T05:43:40;8.49;85.18
78992;DHT22;72820;44.838;37.674;2023-11-19T05:44:41;8.52;85.53
78992;DHT22;72820;44.838;37.674;2023-11-19T05:45:43;8.49;85.56
78992;DHT22;72820;44.838;37.674;2023-11-19T05:46:45;8.46;85.69
78992;DHT22;72820;44.838;37.674;2023-11-19T05:47:47;8.49;85.98
78992;DHT22;72820;44.838;37.674;2023-11-19T05:48:48;8.48;85.83
78992;DHT22;72820;44.838;37.674;2023-11-19T05:49:50;8.48;85.71
78992;DHT22;72820;44.838;37.674;2023-11-19T05:50:51;8.49;85.84
78992;DHT22;72820;44.838;37.674;2023-11-19T05:51:53;8.50;85.71
78992;DHT22;72820;44.838;37.674;2023-11-19T05:52:57;8.50;85.77
78992;DHT22;72820;44.838;37.674;2023-11-19T05:53:59;8.50;85.56
78992;DHT22;72820;44.838;37.674;2023-11-19T05:55:01;8.48;86.02
78992;DHT22;72820;44.838;37.674;2023-11-19T05:56:06;8.48;85.91
78992;DHT22;72820;44.838;37.674;2023-11-19T05:57:10;8.46;86.18
78992;DHT22;72820;44.838;37.674;2023-11-19T05:58:13;8.49;86.41
78992;DHT22;72820;44.838;37.674;2023-11-19T05:59:15;8.49;86.37
78992;DHT22;72820;44.838;37.674;2023-11-19T06:00:18;8.42;86.09
78992;DHT22;72820;44.838;37.674;2023-11-19T06:01:20;8.39;85.86
78992;DHT22;72820;44.838;37.674;2023-11-19T06:02:22;8.32;86.08
78992;DHT22;72820;44.838;37.674;2023-11-19T06:03:24;8.31;86.56
78992;DHT22;72820;44.838;37.674;2023-11-19T06:04:25;8.31;86.62
78992;DHT22;72820;44.838;37.674;2023-11-19T06:05:27;8.32;86.68
78992;DHT22;72820;44.838;37.674;2023-11-19T06:06:28;8.32;86.40
78992;DHT22;72820;44.838;37.674;2023-11-19T06:07:30;8.38;86.84
78992;DHT22;72820;44.838;37.674;2023-11-19T06:08:32;8.41;86.07
78992;DHT22;72820;44.838;37.674;2023-11-19T06:09:35;8.42;86.09
78992;DHT22;72820;44.838;37.674;2023-11-19T06:10:39;8.42;85.85
78992;DHT22;72820;44.838;37.674;2023-11-19T06:11:40;8.39;86.32
78992;DHT22;72820;44.838;37.674;2023-11-19T06:12:42;8.41;86.06
78992;DHT22;72820;44.838;37.674;2023-11-19T06:13:44;8.39;86.29
78992;DHT22;72820;44.838;37.674;2023-11-19T06:14:45;8.42;86.11
78992;DHT22;72820;44.838;37.674;2023-11-19T06:15:47;8.44;86.03
78992;DHT22;72820;44.838;37.674;2023-11-19T06:16:48;8.42;85.98
78992;DHT22;72820;44.838;37.674;2023-11-19T06:17:50;8.39;86.10
78992;DHT22;72820;44.838;37.674;2023-11-19T06:18:51;8.44;85.97
78992;DHT22;72820;44.838;37.674;2023-11-19T06:19:54;8.41;86.42
78992;DHT22;72820;44.838;37.674;2023-11-19T06:20:56;8.38;86.04
78992;DHT22;72820;44.838;37.674;2023-11-19T06:21:57;8.41;86.15
78992;DHT22;72820;44.838;37.674;2023-11-19T06:22:59;8.41;86.22
78992;DHT22;72820;44.838;37.674;2023-11-19T06:24:01;8.41;86.48
78992;DHT22;72820;44.838;37.674;2023-11-19T06:25:03;8.41;86.21
78992;DHT22;72820;44.838;37.674;2023-11-19T06:26:08;8.39;86.37
78992;DHT22;72820;44.838;37.674;2023-11-19T06:27:11;8.41;86.57
78992;DHT22;72820;44.838;37.674;2023-11-19T06:28:14;8.44;86.41
78992;DHT22;72820;44.838;37.674;2023-11-19T06:29:15;8.39;86.21
78992;DHT22;72820;44.838;37.674;2023-11-19T06:30:20;8.35;86.21
78992;DHT22;72820;44.838;37.674;2023-11-19T06:31:22;8.34;86.41
78992;DHT22;72820;44.838;37.674;2023-11-19T06:32:24;8.38;86.48
78992;DHT22;72820;44.838;37.674;2023-11-19T06:33:25;8.37;86.68